createdAt,value
2018-12-04T00:00:27.499Z,21.3
2018-12-04T00:01:27.521Z,33.3
2018-12-04T00:02:27.598Z,57.3
2018-12-04T00:03:27.560Z,48.3
2018-12-04T00:04:27.476Z,18.3
2018-12-04T00:05:27.418Z,42.3
2018-12-04T00:06:27.456Z,54.3
2018-12-04T00:07:27.501Z,42.3
2018-12-04T00:08:27.513Z,15.4
2018-12-04T00:09:27.488Z,27.3
2018-12-04T00:10:27.429Z,36.3
2018-12-04T00:11:27.486Z,57.3
2018-12-04T00:12:27.465Z,15.4
2018-12-04T00:13:27.537Z,24.3
2018-12-04T00:14:30.829Z,21.3
2018-12-04T00:15:27.458Z,39.3
2018-12-04T00:16:28.160Z,45.3
2018-12-04T00:17:27.456Z,24.3
2018-12-04T00:18:27.536Z,18.3
2018-12-04T00:19:27.575Z,30.3
2018-12-04T00:20:27.489Z,39.3
2018-12-04T00:21:27.447Z,21.3
2018-12-04T00:22:27.488Z,30.3
2018-12-04T00:23:27.477Z,30.3
2018-12-04T00:24:27.544Z,36.3
2018-12-04T00:25:27.552Z,27.3
2018-12-04T00:26:27.455Z,24.3
2018-12-04T00:27:27.505Z,36.3
2018-12-04T00:28:27.549Z,27.3
2018-12-04T00:29:27.522Z,48.3
2018-12-04T00:30:27.554Z,63.4
2018-12-04T00:31:27.473Z,27.3
2018-12-04T00:32:27.420Z,39.3
2018-12-04T00:33:27.520Z,45.3
2018-12-04T00:34:27.477Z,60.3
2018-12-04T00:35:27.419Z,57.3
2018-12-04T00:36:27.561Z,15.4
2018-12-04T00:37:27.443Z,36.3
2018-12-04T00:38:27.429Z,60.3
2018-12-04T00:39:27.496Z,24.3
2018-12-04T00:40:27.480Z,33.3
2018-12-04T00:41:27.560Z,36.3
2018-12-04T00:42:27.469Z,33.3
2018-12-04T00:43:27.414Z,30.3
2018-12-04T00:44:27.465Z,39.3
2018-12-04T00:45:27.467Z,57.3
2018-12-04T00:46:27.539Z,18.3
2018-12-04T00:47:27.475Z,30.3
2018-12-04T00:48:27.430Z,18.3
2018-12-04T00:49:27.429Z,27.3
2018-12-04T00:50:27.548Z,39.3
2018-12-04T00:51:27.460Z,42.3
2018-12-04T00:52:27.465Z,42.3
2018-12-04T00:53:27.470Z,24.3
2018-12-04T00:54:27.414Z,27.3
2018-12-04T00:55:27.599Z,24.3
2018-12-04T00:56:27.487Z,45.3
2018-12-04T00:57:27.470Z,30.3
2018-12-04T00:58:27.473Z,15.4
2018-12-04T00:59:27.442Z,24.3
2018-12-04T01:00:27.515Z,18.3
2018-12-04T01:01:27.549Z,51.3
2018-12-04T01:02:27.515Z,48.3
2018-12-04T01:03:27.476Z,12.4
2018-12-04T01:04:27.456Z,36.3
2018-12-04T01:05:27.431Z,24.3
2018-12-04T01:06:27.528Z,42.3
2018-12-04T01:07:27.459Z,30.3
2018-12-04T01:08:27.469Z,42.3
2018-12-04T01:09:27.504Z,30.3
2018-12-04T01:10:27.415Z,30.3
2018-12-04T01:11:27.595Z,24.3
2018-12-04T01:12:27.461Z,21.3
2018-12-04T01:13:27.462Z,21.3
2018-12-04T01:14:27.541Z,21.3
2018-12-04T01:15:27.424Z,39.3
2018-12-04T01:16:27.449Z,45.3
2018-12-04T01:17:27.463Z,12.4
2018-12-04T01:18:27.509Z,54.3
2018-12-04T01:19:27.462Z,21.3
2018-12-04T01:20:27.455Z,24.3
2018-12-04T01:21:27.401Z,30.3
2018-12-04T01:22:27.527Z,36.3
2018-12-04T01:23:27.461Z,15.4
2018-12-04T01:24:27.484Z,15.4
2018-12-04T01:25:27.521Z,36.3
2018-12-04T01:26:27.493Z,54.3
2018-12-04T01:27:27.462Z,21.3
2018-12-04T01:28:27.450Z,21.3
2018-12-04T01:29:27.454Z,15.4
2018-12-04T01:30:27.513Z,30.3
2018-12-04T01:31:27.522Z,21.3
2018-12-04T01:32:27.399Z,21.3
2018-12-04T01:33:27.459Z,24.3
2018-12-04T01:34:27.638Z,33.3
2018-12-04T01:35:27.510Z,39.3
2018-12-04T01:36:27.528Z,21.3
2018-12-04T01:37:27.409Z,30.3
2018-12-04T01:38:27.450Z,33.3
2018-12-04T01:39:27.525Z,36.3
2018-12-04T01:40:27.459Z,27.3
2018-12-04T01:41:27.522Z,24.3
2018-12-04T01:42:27.447Z,42.3
2018-12-04T01:43:27.425Z,6.6
2018-12-04T01:44:27.518Z,30.3
2018-12-04T01:45:27.521Z,15.4
2018-12-04T01:46:27.465Z,30.3
2018-12-04T01:47:27.536Z,30.3
2018-12-04T01:48:27.404Z,30.3
2018-12-04T01:49:27.448Z,36.3
2018-12-04T01:50:27.460Z,15.4
2018-12-04T01:51:27.461Z,45.3
2018-12-04T01:52:27.540Z,42.3
2018-12-04T01:53:27.521Z,27.3
2018-12-04T01:54:27.458Z,30.3
2018-12-04T01:55:27.455Z,39.3
2018-12-04T01:56:27.449Z,42.3
2018-12-04T01:57:27.507Z,60.3
2018-12-04T01:58:27.540Z,39.3
2018-12-04T01:59:27.408Z,36.3
2018-12-04T02:00:27.527Z,9.5
2018-12-04T02:01:27.433Z,27.3
2018-12-04T02:02:27.450Z,36.3
2018-12-04T02:03:27.451Z,36.3
2018-12-04T02:04:27.472Z,27.3
2018-12-04T02:05:27.444Z,42.3
2018-12-04T02:06:27.458Z,33.3
2018-12-04T02:07:27.441Z,27.3
2018-12-04T02:08:27.505Z,36.3
2018-12-04T02:09:27.447Z,30.3
2018-12-04T02:10:27.385Z,45.3
2018-12-04T02:11:27.446Z,36.3
2018-12-04T02:12:27.442Z,36.3
2018-12-04T02:13:27.529Z,39.3
2018-12-04T02:14:27.441Z,36.3
2018-12-04T02:15:27.413Z,54.3
2018-12-04T02:16:27.407Z,21.3
2018-12-04T02:17:27.427Z,48.3
2018-12-04T02:18:27.512Z,48.3
2018-12-04T02:19:27.456Z,30.3
2018-12-04T02:20:27.441Z,12.4
2018-12-04T02:21:27.390Z,30.3
2018-12-04T02:22:27.520Z,3.9
2018-12-04T02:23:27.440Z,48.3
2018-12-04T02:24:27.441Z,9.5
2018-12-04T02:25:27.503Z,27.3
2018-12-04T02:26:27.420Z,18.3
2018-12-04T02:27:27.460Z,27.3
2018-12-04T02:28:27.422Z,15.4
2018-12-04T02:29:27.441Z,21.3
2018-12-04T02:30:27.524Z,15.4
2018-12-04T02:31:27.436Z,12.4
2018-12-04T02:32:27.411Z,48.3
2018-12-04T02:33:27.485Z,33.3
2018-12-04T02:34:27.445Z,48.3
2018-12-04T02:35:27.489Z,51.3
2018-12-04T02:36:27.479Z,45.3
2018-12-04T02:37:27.391Z,69.4
2018-12-04T02:38:27.395Z,54.3
2018-12-04T02:39:27.464Z,54.3
2018-12-04T02:40:27.516Z,60.3
2018-12-04T02:41:27.416Z,54.3
2018-12-04T02:42:27.446Z,48.3
2018-12-04T02:43:27.430Z,69.4
2018-12-04T02:44:27.449Z,69.4
2018-12-04T02:45:27.464Z,48.3
2018-12-04T02:46:27.437Z,60.3
2018-12-04T02:47:27.530Z,57.3
2018-12-04T02:48:27.384Z,63.4
2018-12-04T02:49:27.433Z,66.4
2018-12-04T02:50:27.434Z,57.3
2018-12-04T02:51:27.492Z,69.4
2018-12-04T02:52:27.437Z,54.3
2018-12-04T02:53:27.424Z,54.3
2018-12-04T02:54:27.383Z,54.3
2018-12-04T02:55:27.519Z,66.4
2018-12-04T02:56:27.435Z,75.4
2018-12-04T02:57:27.432Z,54.3
2018-12-04T02:58:27.426Z,60.3
2018-12-04T02:59:27.385Z,54.3
2018-12-04T03:00:27.507Z,60.3
2018-12-04T03:01:27.436Z,78.4
2018-12-04T03:02:27.424Z,57.3
2018-12-04T03:03:27.423Z,51.3
2018-12-04T03:04:27.393Z,48.3
2018-12-04T03:05:27.403Z,57.3
2018-12-04T03:06:27.432Z,51.3
2018-12-04T03:07:27.501Z,48.3
2018-12-04T03:08:27.430Z,48.3
2018-12-04T03:09:27.430Z,60.3
2018-12-04T03:10:27.375Z,60.3
2018-12-04T03:11:27.426Z,75.4
2018-12-04T03:12:27.516Z,87.4
2018-12-04T03:13:27.500Z,78.4
2018-12-04T03:14:27.448Z,57.3
2018-12-04T03:15:27.392Z,66.4
2018-12-04T03:16:27.459Z,54.3
2018-12-04T03:17:27.477Z,54.3
2018-12-04T03:18:27.427Z,60.3
2018-12-04T03:19:27.422Z,54.3
2018-12-04T03:20:27.482Z,75.4
2018-12-04T03:21:27.446Z,81.4
2018-12-04T03:22:27.414Z,66.4
2018-12-04T03:23:27.427Z,66.4
2018-12-04T03:24:27.424Z,60.3
2018-12-04T03:25:27.491Z,54.3
2018-12-04T03:26:27.412Z,66.4
2018-12-04T03:27:27.443Z,63.4
2018-12-04T03:28:27.420Z,81.4
2018-12-04T03:29:27.416Z,81.4
2018-12-04T03:30:27.554Z,81.4
2018-12-04T03:31:27.404Z,75.4
2018-12-04T03:32:27.392Z,87.4
2018-12-04T03:33:27.445Z,75.4
2018-12-04T03:34:27.442Z,75.4
2018-12-04T03:35:27.477Z,69.4
2018-12-04T03:36:27.424Z,69.4
2018-12-04T03:37:27.388Z,72.4
2018-12-04T03:38:27.411Z,96.5
2018-12-04T03:39:27.469Z,87.4
2018-12-04T03:40:27.474Z,69.4
2018-12-04T03:41:27.421Z,63.4
2018-12-04T03:42:27.510Z,96.5
2018-12-04T03:43:27.401Z,75.4
2018-12-04T03:44:27.423Z,63.4
2018-12-04T03:45:27.486Z,63.4
2018-12-04T03:46:27.478Z,78.4
2018-12-04T03:47:27.418Z,63.4
2018-12-04T03:48:27.431Z,66.4
2018-12-04T03:49:27.417Z,60.3
2018-12-04T03:50:27.469Z,63.4
2018-12-04T03:51:27.486Z,60.3
2018-12-04T03:52:27.407Z,60.3
2018-12-04T03:53:27.379Z,60.3
2018-12-04T03:54:27.369Z,48.3
2018-12-04T03:55:27.411Z,42.3
2018-12-04T03:56:27.488Z,45.3
2018-12-04T03:57:27.482Z,39.3
2018-12-04T03:58:27.402Z,42.3
2018-12-04T03:59:27.372Z,60.3
2018-12-04T04:00:27.413Z,60.3
2018-12-04T04:01:27.417Z,48.3
2018-12-04T04:02:27.470Z,66.4
2018-12-04T04:03:27.412Z,54.3
2018-12-04T04:04:27.364Z,60.3
2018-12-04T04:05:27.353Z,72.4
2018-12-04T04:06:27.399Z,63.4
2018-12-04T04:07:27.452Z,63.4
2018-12-04T04:08:27.410Z,72.4
2018-12-04T04:09:27.498Z,75.4
2018-12-04T04:10:27.351Z,66.4
2018-12-04T04:11:27.425Z,60.3
2018-12-04T04:12:27.400Z,63.4
2018-12-04T04:13:27.410Z,63.4
2018-12-04T04:14:27.482Z,69.4
2018-12-04T04:15:27.367Z,63.4
2018-12-04T04:16:27.412Z,51.3
2018-12-04T04:17:27.429Z,45.3
2018-12-04T04:18:27.492Z,51.3
2018-12-04T04:19:27.408Z,45.3
2018-12-04T04:20:27.480Z,42.3
2018-12-04T04:21:27.357Z,42.3
2018-12-04T04:22:27.400Z,45.3
2018-12-04T04:23:27.401Z,45.3
2018-12-04T04:24:27.406Z,51.3
2018-12-04T04:25:27.483Z,36.3
2018-12-04T04:26:27.380Z,36.3
2018-12-04T04:27:27.353Z,42.3
2018-12-04T04:28:27.376Z,42.3
2018-12-04T04:29:27.401Z,36.3
2018-12-04T04:30:27.458Z,45.3
2018-12-04T04:31:27.410Z,57.3
2018-12-04T04:32:27.415Z,48.3
2018-12-04T04:33:27.412Z,45.3
2018-12-04T04:34:27.392Z,72.4
2018-12-04T04:35:27.464Z,63.4
2018-12-04T04:36:27.399Z,60.3
2018-12-04T04:37:27.339Z,54.3
2018-12-04T04:38:27.407Z,63.4
2018-12-04T04:39:27.409Z,60.3
2018-12-04T04:40:27.488Z,81.4
2018-12-04T04:41:27.390Z,84.4
2018-12-04T04:42:27.352Z,81.4
2018-12-04T04:43:27.376Z,45.3
2018-12-04T04:44:27.464Z,69.4
2018-12-04T04:45:27.397Z,60.3
2018-12-04T04:46:27.402Z,57.3
2018-12-04T04:47:27.401Z,63.4
2018-12-04T04:48:27.403Z,54.3
2018-12-04T04:49:27.412Z,60.3
2018-12-04T04:50:27.453Z,60.3
2018-12-04T04:51:27.401Z,51.3
2018-12-04T04:52:27.446Z,42.3
2018-12-04T04:53:27.351Z,48.3
2018-12-04T04:54:27.402Z,54.3
2018-12-04T04:55:27.389Z,36.3
2018-12-04T04:56:27.451Z,48.3
2018-12-04T04:57:27.393Z,39.3
2018-12-04T04:58:27.427Z,51.3
2018-12-04T04:59:27.340Z,45.3
2018-12-04T05:00:31.449Z,36.3
2018-12-04T05:01:32.113Z,30.3
2018-12-04T05:02:30.382Z,33.3
2018-12-04T05:17:38.360Z,30.3
2018-12-04T05:18:42.585Z,39.3
2018-12-04T05:19:42.592Z,33.3
2018-12-04T05:20:42.622Z,60.3
2018-12-04T05:21:42.538Z,54.3
2018-12-04T05:22:42.594Z,63.4
2018-12-04T05:23:42.595Z,63.4
2018-12-04T05:24:42.641Z,48.3
2018-12-04T05:25:42.591Z,48.3
2018-12-04T05:26:42.517Z,45.3
2018-12-04T05:27:42.567Z,57.3
2018-12-04T05:28:42.651Z,69.4
2018-12-04T05:29:42.651Z,39.3
2018-12-04T05:30:42.561Z,42.3
2018-12-04T05:31:42.552Z,36.3
2018-12-04T05:32:42.576Z,60.3
2018-12-04T05:33:42.570Z,63.4
2018-12-04T05:34:42.653Z,66.4
2018-12-04T05:35:42.569Z,57.3
2018-12-04T05:36:42.594Z,39.3
2018-12-04T05:37:42.585Z,66.4
2018-12-04T05:38:42.563Z,30.3
2018-12-04T05:39:44.699Z,48.3
2018-12-04T05:40:42.584Z,33.3
2018-12-04T05:41:42.609Z,48.3
2018-12-04T05:42:42.593Z,42.3
2018-12-04T05:43:42.536Z,45.3
2018-12-04T05:44:42.783Z,36.3
2018-12-04T05:45:42.641Z,33.3
2018-12-04T05:46:43.036Z,36.3
2018-12-04T05:47:42.735Z,48.3
2018-12-04T05:48:42.556Z,30.3
2018-12-04T05:49:42.583Z,27.3
2018-12-04T05:50:42.575Z,30.3
2018-12-04T05:51:42.631Z,39.3
2018-12-04T05:52:42.635Z,42.3
2018-12-04T05:53:42.522Z,48.3
2018-12-04T05:54:42.660Z,42.3
2018-12-04T05:55:42.638Z,51.3
2018-12-04T05:56:42.635Z,39.3
2018-12-04T05:57:42.629Z,39.3
2018-12-04T05:58:42.543Z,42.3
2018-12-04T05:59:42.552Z,51.3
2018-12-04T06:00:42.627Z,48.3
2018-12-04T06:01:42.637Z,30.3
2018-12-04T06:02:42.576Z,54.3
2018-12-04T06:03:43.315Z,54.3
2018-12-04T06:04:42.514Z,42.3
2018-12-04T06:05:42.563Z,39.3
2018-12-04T06:06:42.555Z,45.3
2018-12-04T06:07:42.629Z,42.3
2018-12-04T06:08:42.635Z,45.3
2018-12-04T06:09:42.530Z,45.3
2018-12-04T06:10:42.533Z,39.3
2018-12-04T06:11:42.564Z,39.3
2018-12-04T06:12:42.616Z,39.3
2018-12-04T06:13:42.515Z,33.3
2018-12-04T06:14:42.626Z,42.3
2018-12-04T06:15:42.508Z,45.3
2018-12-04T06:16:42.620Z,33.3
2018-12-04T06:17:42.553Z,33.3
2018-12-04T06:18:42.562Z,27.3
2018-12-04T06:19:42.540Z,36.3
2018-12-04T06:20:42.508Z,33.3
2018-12-04T06:21:42.585Z,48.3
2018-12-04T06:22:42.549Z,42.3
2018-12-04T06:23:42.553Z,63.4
2018-12-04T06:24:42.571Z,54.3
2018-12-04T06:25:42.553Z,60.3
2018-12-04T06:26:42.591Z,60.3
2018-12-04T06:27:42.604Z,63.4
2018-12-04T06:28:42.497Z,42.3
2018-12-04T06:29:42.561Z,45.3
2018-12-04T06:30:42.536Z,48.3
2018-12-04T06:31:42.582Z,60.3
2018-12-04T06:32:42.532Z,57.3
2018-12-04T06:33:42.537Z,69.4
2018-12-04T06:34:42.582Z,66.4
2018-12-04T06:35:42.552Z,60.3
2018-12-04T06:36:42.603Z,69.4
2018-12-04T06:37:42.501Z,51.3
2018-12-04T06:38:42.548Z,57.3
2018-12-04T06:39:42.536Z,63.4
2018-12-04T06:40:42.623Z,63.4
2018-12-04T06:41:42.919Z,48.3
2018-12-04T06:42:42.669Z,42.3
2018-12-04T06:43:42.569Z,45.3
2018-12-04T06:44:50.480Z,45.3
2018-12-04T06:45:42.850Z,54.3
2018-12-04T06:46:42.965Z,48.3
2018-12-04T06:47:46.343Z,42.3
2018-12-04T06:48:42.818Z,51.3
2018-12-04T06:49:42.797Z,42.3
2018-12-04T06:50:42.790Z,36.3
2018-12-04T06:51:42.712Z,27.3
2018-12-04T06:52:45.030Z,30.3
2018-12-04T06:53:45.111Z,24.3
2018-12-04T06:54:44.792Z,30.3
2018-12-04T06:55:42.632Z,33.3
2018-12-04T06:56:42.713Z,24.3
2018-12-04T06:57:42.923Z,54.3
2018-12-04T06:58:42.660Z,51.3
2018-12-04T06:59:42.694Z,48.3
2018-12-04T07:00:42.732Z,30.3
2018-12-04T07:01:42.738Z,39.3
2018-12-04T07:02:42.755Z,51.3
2018-12-04T07:03:42.853Z,45.3
2018-12-04T07:04:42.691Z,36.3
2018-12-04T07:05:42.697Z,33.3
2018-12-04T07:06:42.836Z,30.3
2018-12-04T07:07:42.852Z,36.3
2018-12-04T07:09:46.507Z,39.3
2018-12-04T07:10:46.633Z,45.3
2018-12-04T07:11:46.567Z,45.3
2018-12-04T07:12:46.646Z,30.3
2018-12-04T07:13:46.481Z,36.3
2018-12-04T07:14:46.579Z,42.3
2018-12-04T07:15:47.704Z,36.3
2018-12-04T07:16:46.580Z,57.3
2018-12-04T07:17:46.640Z,33.3
2018-12-04T07:18:46.639Z,30.3
2018-12-04T07:19:46.696Z,36.3
2018-12-04T07:20:46.549Z,33.3
2018-12-04T07:21:46.789Z,33.3
2018-12-04T07:22:46.556Z,60.3
2018-12-04T07:23:46.610Z,27.3
2018-12-04T07:24:49.656Z,27.3
2018-12-04T07:25:46.679Z,42.3
2018-12-04T07:26:46.772Z,48.3
2018-12-04T07:27:46.651Z,33.3
2018-12-04T07:28:46.649Z,42.3
2018-12-04T07:29:46.564Z,51.3
2018-12-04T07:30:46.643Z,30.3
2018-12-04T07:31:46.356Z,30.3
2018-12-04T07:32:46.348Z,51.3
2018-12-04T07:33:46.437Z,42.3
2018-12-04T07:34:46.453Z,54.3
2018-12-04T07:35:46.381Z,39.3
2018-12-04T07:36:46.884Z,36.3
2018-12-04T07:37:46.395Z,30.3
2018-12-04T07:38:46.372Z,33.3
2018-12-04T07:39:46.367Z,30.3
2018-12-04T07:40:46.429Z,45.3
2018-12-04T07:41:46.408Z,45.3
2018-12-04T07:42:46.322Z,36.3
2018-12-04T07:43:46.366Z,45.3
2018-12-04T07:44:46.353Z,39.3
2018-12-04T07:45:46.436Z,48.3
2018-12-04T07:46:46.419Z,33.3
2018-12-04T07:47:46.356Z,42.3
2018-12-04T07:48:46.341Z,39.3
2018-12-04T07:49:46.369Z,36.3
2018-12-04T07:50:46.443Z,54.3
2018-12-04T07:51:46.369Z,45.3
2018-12-04T07:52:46.361Z,45.3
2018-12-04T07:53:46.405Z,39.3
2018-12-04T07:54:46.364Z,54.3
2018-12-04T07:55:46.376Z,48.3
2018-12-04T07:56:46.355Z,72.4
2018-12-04T07:57:46.369Z,51.3
2018-12-04T07:58:46.419Z,42.3
2018-12-04T07:59:46.355Z,51.3
2018-12-04T08:00:46.467Z,51.3
2018-12-04T08:01:46.403Z,39.3
2018-12-04T08:02:46.410Z,48.3
2018-12-04T08:03:46.382Z,60.3
2018-12-04T08:04:46.390Z,57.3
2018-12-04T08:05:46.361Z,45.3
2018-12-04T08:06:46.359Z,36.3
2018-12-04T08:07:46.354Z,48.3
2018-12-04T08:08:46.359Z,54.3
2018-12-04T08:09:46.391Z,42.3
2018-12-04T08:10:46.345Z,39.3
2018-12-04T08:11:46.363Z,54.3
2018-12-04T08:12:46.444Z,48.3
2018-12-04T08:13:46.365Z,36.3
2018-12-04T08:14:46.376Z,48.3
2018-12-04T08:15:46.382Z,51.3
2018-12-04T08:16:46.434Z,36.3
2018-12-04T08:17:46.350Z,54.3
2018-12-04T08:18:46.376Z,45.3
2018-12-04T08:19:46.364Z,36.3
2018-12-04T08:20:46.380Z,36.3
2018-12-04T08:21:46.299Z,36.3
2018-12-04T08:22:46.392Z,42.3
2018-12-04T08:23:46.374Z,45.3
2018-12-04T08:24:46.415Z,45.3
2018-12-04T08:25:46.336Z,36.3
2018-12-04T08:26:46.388Z,36.3
2018-12-04T08:27:46.342Z,30.3
2018-12-04T08:28:46.434Z,33.3
2018-12-04T08:29:46.353Z,36.3
2018-12-04T08:30:46.354Z,27.3
2018-12-04T08:31:46.310Z,39.3
2018-12-04T08:32:46.445Z,36.3
2018-12-04T08:33:46.352Z,33.3
2018-12-04T08:34:46.348Z,24.3
2018-12-04T08:35:46.339Z,36.3
2018-12-04T08:36:46.350Z,39.3
2018-12-04T08:37:46.362Z,30.3
2018-12-04T08:38:46.349Z,48.3
2018-12-04T08:39:46.431Z,45.3
2018-12-04T08:40:46.383Z,36.3
2018-12-04T08:41:46.432Z,30.3
2018-12-04T08:42:46.307Z,33.3
2018-12-04T08:43:46.406Z,36.3
2018-12-04T08:44:46.344Z,30.3
2018-12-04T08:45:46.339Z,33.3
2018-12-04T08:46:46.490Z,39.3
2018-12-04T08:47:46.309Z,21.3
2018-12-04T08:48:46.341Z,33.3
2018-12-04T08:49:46.363Z,33.3
2018-12-04T08:50:46.404Z,33.3
2018-12-04T08:51:46.384Z,48.3
2018-12-04T08:52:46.370Z,42.3
2018-12-04T08:53:46.367Z,39.3
2018-12-04T08:54:46.413Z,30.3
2018-12-04T08:55:46.339Z,30.3
2018-12-04T08:56:46.408Z,21.3
2018-12-04T08:57:46.343Z,39.3
2018-12-04T08:58:46.291Z,39.3
2018-12-04T08:59:46.349Z,42.3
2018-12-04T09:00:46.421Z,33.3
2018-12-04T09:01:46.422Z,42.3
2018-12-04T09:02:46.343Z,21.3
2018-12-04T09:03:46.408Z,39.3
2018-12-04T09:04:46.298Z,42.3
2018-12-04T09:05:46.327Z,48.3
2018-12-04T09:06:46.401Z,48.3
2018-12-04T09:07:46.326Z,45.3
2018-12-04T09:08:46.581Z,45.3
2018-12-04T09:09:46.297Z,33.3
2018-12-04T09:10:46.327Z,30.3
2018-12-04T09:11:46.346Z,18.3
2018-12-04T09:12:46.346Z,39.3
2018-12-04T09:13:46.389Z,36.3
2018-12-04T09:14:46.341Z,51.3
2018-12-04T09:15:46.358Z,36.3
2018-12-04T09:16:46.811Z,36.3
2018-12-04T09:17:46.352Z,48.3
2018-12-04T09:18:46.386Z,36.3
2018-12-04T09:19:48.145Z,48.3
2018-12-04T09:20:46.407Z,36.3
2018-12-04T09:21:46.488Z,54.3
2018-12-04T09:22:46.718Z,57.3
2018-12-04T09:23:46.513Z,45.3
2018-12-04T09:24:46.514Z,48.3
2018-12-04T09:25:50.311Z,36.3
2018-12-04T09:26:46.483Z,63.4
2018-12-04T09:27:46.335Z,36.3
2018-12-04T09:28:46.439Z,54.3
2018-12-04T09:29:46.384Z,63.4
2018-12-04T09:30:47.763Z,42.3
2018-12-04T09:31:46.309Z,45.3
2018-12-04T09:32:46.372Z,42.3
2018-12-04T09:33:46.480Z,42.3
2018-12-04T09:34:46.342Z,63.4
2018-12-04T09:35:48.424Z,66.4
2018-12-04T09:36:46.324Z,45.3
2018-12-04T09:37:46.438Z,60.3
2018-12-04T09:38:46.386Z,60.3
2018-12-04T09:39:46.341Z,51.3
2018-12-04T09:40:46.332Z,39.3
2018-12-04T09:41:46.425Z,36.3
2018-12-04T09:42:46.459Z,45.3
2018-12-04T09:43:46.713Z,36.3
2018-12-04T09:44:46.341Z,48.3
2018-12-04T09:45:46.346Z,39.3
2018-12-04T09:46:46.341Z,57.3
2018-12-04T09:47:46.325Z,42.3
2018-12-04T09:48:46.442Z,42.3
2018-12-04T09:49:46.370Z,54.3
2018-12-04T09:50:46.496Z,48.3
2018-12-04T09:51:46.444Z,48.3
2018-12-04T09:52:46.364Z,30.3
2018-12-04T09:53:51.863Z,36.3
2018-12-04T09:54:46.316Z,45.3
2018-12-04T09:55:46.431Z,39.3
2018-12-04T09:56:46.335Z,45.3
2018-12-04T09:57:46.387Z,33.3
2018-12-04T09:58:46.327Z,48.3
2018-12-04T09:59:46.288Z,39.3
2018-12-04T10:00:46.341Z,30.3
2018-12-04T10:01:46.447Z,36.3
2018-12-04T10:02:46.382Z,48.3
2018-12-04T10:03:46.349Z,36.3
2018-12-04T10:04:46.298Z,33.3
2018-12-04T10:05:46.337Z,54.3
2018-12-04T10:06:46.408Z,63.4
2018-12-04T10:07:46.395Z,63.4
2018-12-04T10:08:46.342Z,33.3
2018-12-04T10:09:46.358Z,45.3
2018-12-04T10:10:46.377Z,48.3
2018-12-04T10:11:46.357Z,57.3
2018-12-04T10:12:46.451Z,42.3
2018-12-04T10:13:46.336Z,42.3
2018-12-04T10:14:46.406Z,42.3
2018-12-04T10:15:46.373Z,39.3
2018-12-04T10:16:46.326Z,48.3
2018-12-04T10:17:46.468Z,48.3
2018-12-04T10:18:50.053Z,69.4
2018-12-04T10:19:46.340Z,36.3
2018-12-04T10:20:46.313Z,63.4
2018-12-04T10:21:46.360Z,36.3
2018-12-04T10:22:46.388Z,42.3
2018-12-04T10:23:46.333Z,54.3
2018-12-04T10:24:46.339Z,48.3
2018-12-04T10:25:46.341Z,78.4
2018-12-04T10:26:46.294Z,48.3
2018-12-04T10:27:46.412Z,39.3
2018-12-04T10:28:46.363Z,69.4
2018-12-04T10:29:46.345Z,51.3
2018-12-04T10:30:46.344Z,63.4
2018-12-04T10:31:46.757Z,48.3
2018-12-04T10:32:46.410Z,75.4
2018-12-04T10:33:46.287Z,60.3
2018-12-04T10:34:46.340Z,66.4
2018-12-04T10:35:46.335Z,42.3
2018-12-04T10:36:49.461Z,36.3
2018-12-04T10:37:46.290Z,51.3
2018-12-04T10:38:46.345Z,51.3
2018-12-04T10:39:46.342Z,60.3
2018-12-04T10:40:46.460Z,60.3
2018-12-04T10:41:46.455Z,75.4
2018-12-04T10:42:46.375Z,60.3
2018-12-04T10:43:47.887Z,42.3
2018-12-04T10:44:47.719Z,51.3
2018-12-04T10:45:47.338Z,45.3
2018-12-04T10:46:50.698Z,57.3
2018-12-04T10:47:49.760Z,60.3
2018-12-04T10:48:48.444Z,48.3
2018-12-04T10:49:49.797Z,33.3
2018-12-04T10:50:47.466Z,63.4
2018-12-04T10:51:46.682Z,36.3
2018-12-04T10:52:50.075Z,57.3
2018-12-04T10:53:50.129Z,75.4
2018-12-04T10:54:47.970Z,54.3
2018-12-04T10:55:47.065Z,57.3
2018-12-04T10:56:47.700Z,90.4
2018-12-04T10:57:47.107Z,54.3
2018-12-04T10:58:48.351Z,57.3
2018-12-04T10:59:51.730Z,51.3
2018-12-04T11:00:48.421Z,51.3
2018-12-04T11:01:48.684Z,66.4
2018-12-04T11:02:50.528Z,51.3
2018-12-04T11:03:47.042Z,75.4
2018-12-04T11:04:47.327Z,48.3
2018-12-04T11:05:48.830Z,60.3
2018-12-04T11:06:48.404Z,30.3
2018-12-04T11:07:49.318Z,54.3
2018-12-04T11:08:47.010Z,45.3
2018-12-04T11:09:49.385Z,42.3
2018-12-04T11:10:48.931Z,42.3
2018-12-04T11:11:50.604Z,54.3
2018-12-04T11:12:47.714Z,54.3
2018-12-04T11:14:54.318Z,63.4
2018-12-04T11:15:52.659Z,60.3
2018-12-04T11:16:52.927Z,45.3
2018-12-04T11:17:55.589Z,39.3
2018-12-04T11:19:54.950Z,39.3
2018-12-04T11:20:56.350Z,42.3
2018-12-04T11:21:54.999Z,45.3
2018-12-04T11:22:55.591Z,48.3
2018-12-04T11:23:55.438Z,45.3
2018-12-04T11:26:00.003Z,45.3
2018-12-04T11:26:57.837Z,57.3
2018-12-04T11:27:58.725Z,39.3
2018-12-04T11:28:59.763Z,36.3
2018-12-04T11:29:58.795Z,48.3
2018-12-04T11:30:59.479Z,54.3
2018-12-04T11:31:59.131Z,51.3
2018-12-04T11:32:59.549Z,42.3
2018-12-04T11:33:59.945Z,63.4
2018-12-04T11:34:57.852Z,51.3
2018-12-04T11:35:56.740Z,54.3
2018-12-04T11:36:56.738Z,54.3
2018-12-04T11:37:56.666Z,51.3
2018-12-04T11:38:56.720Z,48.3
2018-12-04T11:39:56.788Z,60.3
2018-12-04T11:40:56.710Z,42.3
2018-12-04T11:41:56.778Z,48.3
2018-12-04T11:42:56.730Z,51.3
2018-12-04T11:43:58.679Z,45.3
2018-12-04T11:44:57.765Z,48.3
2018-12-04T11:45:58.520Z,36.3
2018-12-04T11:46:58.510Z,42.3
2018-12-04T11:47:58.655Z,42.3
2018-12-04T11:48:59.296Z,45.3
2018-12-04T11:49:58.557Z,42.3
2018-12-04T11:51:04.360Z,45.3
2018-12-04T11:51:59.135Z,63.4
2018-12-04T11:52:59.213Z,54.3
2018-12-04T11:54:00.275Z,48.3
2018-12-04T11:54:58.460Z,45.3
2018-12-04T11:55:57.517Z,63.4
2018-12-04T11:56:59.548Z,45.3
2018-12-04T11:57:58.605Z,36.3
2018-12-04T11:58:57.599Z,42.3
2018-12-04T11:59:59.338Z,42.3
2018-12-04T12:00:58.314Z,36.3
2018-12-04T12:01:58.057Z,36.3
2018-12-04T12:03:00.281Z,57.3
2018-12-04T12:03:58.589Z,48.3
2018-12-04T12:04:57.292Z,45.3
2018-12-04T12:05:57.780Z,48.3
2018-12-04T12:07:00.988Z,45.3
2018-12-04T12:08:00.378Z,33.3
2018-12-04T12:08:57.559Z,42.3
2018-12-04T12:09:56.741Z,63.4
2018-12-04T12:10:56.771Z,51.3
2018-12-04T12:13:04.869Z,48.3
2018-12-04T12:14:02.770Z,39.3
2018-12-04T12:15:02.783Z,33.3
2018-12-04T12:16:02.834Z,36.3
2018-12-04T12:17:02.794Z,30.3
2018-12-04T12:18:02.801Z,48.3
2018-12-04T12:19:02.733Z,42.3
2018-12-04T12:20:02.809Z,57.3
2018-12-04T12:21:02.731Z,72.4
2018-12-04T12:22:02.794Z,48.3
2018-12-04T12:23:02.857Z,57.3
2018-12-04T12:24:05.661Z,54.3
2018-12-04T12:25:06.635Z,54.3
2018-12-04T12:26:04.275Z,84.4
2018-12-04T12:27:03.638Z,60.3
2018-12-04T12:28:03.710Z,63.4
2018-12-04T12:29:03.274Z,48.3
2018-12-04T12:31:13.010Z,48.3
2018-12-04T12:32:11.567Z,51.3
2018-12-04T12:33:09.442Z,51.3
2018-12-04T12:34:09.113Z,48.3
2018-12-04T12:35:09.675Z,48.3
2018-12-04T12:36:10.309Z,60.3
2018-12-04T12:37:10.272Z,54.3
2018-12-04T12:38:13.035Z,54.3
2018-12-04T12:39:09.460Z,51.3
2018-12-04T12:40:09.170Z,60.3
2018-12-04T12:41:08.966Z,57.3
2018-12-04T12:42:09.720Z,39.3
2018-12-04T12:43:08.604Z,48.3
2018-12-04T12:44:10.411Z,54.3
2018-12-04T12:45:08.567Z,60.3
2018-12-04T12:46:09.131Z,57.3
2018-12-04T12:47:07.915Z,54.3
2018-12-04T12:48:11.439Z,63.4
2018-12-04T12:49:08.098Z,81.4
2018-12-04T12:50:08.795Z,57.3
2018-12-04T12:51:09.753Z,51.3
2018-12-04T12:52:09.011Z,51.3
2018-12-04T12:53:08.719Z,39.3
2018-12-04T12:54:09.461Z,33.3
2018-12-04T12:55:08.353Z,33.3
2018-12-04T12:56:09.305Z,24.3
2018-12-04T12:57:07.983Z,15.4
2018-12-04T12:58:09.752Z,36.3
2018-12-04T12:59:07.804Z,39.3
2018-12-04T13:00:08.610Z,36.3
2018-12-04T13:02:13.382Z,36.3
2018-12-04T13:03:13.010Z,36.3
2018-12-04T13:04:09.740Z,30.3
2018-12-04T13:05:09.766Z,30.3
2018-12-04T13:06:09.824Z,42.3
2018-12-04T13:07:09.915Z,24.3
2018-12-04T13:08:09.903Z,33.3
2018-12-04T13:09:09.856Z,69.4
2018-12-04T13:10:09.757Z,48.3
2018-12-04T13:11:10.008Z,27.3
2018-12-04T13:12:09.825Z,39.3
2018-12-04T13:13:11.125Z,57.3
2018-12-04T13:14:09.907Z,48.3
2018-12-04T13:15:09.855Z,48.3
2018-12-04T13:16:09.838Z,63.4
2018-12-04T13:17:09.803Z,57.3
2018-12-04T13:18:10.754Z,63.4
2018-12-04T13:19:14.033Z,39.3
2018-12-04T13:20:10.392Z,39.3
2018-12-04T13:21:09.806Z,21.3
2018-12-04T13:22:09.793Z,33.3
2018-12-04T13:23:09.763Z,15.4
2018-12-04T13:24:09.765Z,18.3
2018-12-04T13:25:09.805Z,30.3
2018-12-04T13:26:09.773Z,30.3
2018-12-04T13:27:09.775Z,24.3
2018-12-04T13:28:09.844Z,27.3
2018-12-04T13:29:09.760Z,21.3
2018-12-04T13:30:09.789Z,33.3
2018-12-04T13:31:09.831Z,21.3
2018-12-04T13:32:09.726Z,27.3
2018-12-04T13:33:09.802Z,24.3
2018-12-04T13:34:09.762Z,24.3
2018-12-04T13:35:09.812Z,18.3
2018-12-04T13:36:09.855Z,15.4
2018-12-04T13:37:09.753Z,18.3
2018-12-04T13:38:09.782Z,21.3
2018-12-04T13:39:09.884Z,15.4
2018-12-04T13:40:11.185Z,18.3